Messwerte Morogoro

Temperatur

Temperatur
°C
1573758000 22.00 22.00 25
1573761600 23.00 23.00
1573765200 0.00 0.00 24
1573768800 1.00 1.00
1573772400 2.00 2.00
1573776000 3.00 3.00 22
1573779600 4.00 4.00 22
1573783200 5.00 5.00 22
1573786800 6.00 6.00 21
1573790400 7.00 7.00 21
1573794000 8.00 8.00 25
1573797600 9.00 9.00 27
1573801200 10.00 10.00 28
1573804800 11.00 11.00 29
1573808400 12.00 12.00 30
1573812000 13.00 13.00 31
1573815600 14.00 14.00 31
1573819200 15.00 15.00 31
1573822800 16.00 16.00
1573826400 17.00 17.00 30
1573830000 18.00 18.00 29
1573833600 19.00 19.00 28
1573837200 20.00 20.00 26
1573840800 21.00 21.00 26

Aktuellste Messwerte

Wettercharakter
Wetter: meist klar
Temperatur
25 °C
Feuchtigkeit
85 %
Wind
0 km/h, -
Luftdruck
1010 hPa
Messzeit: 15. November 2019, 22.00Datenquelle: METAR

Weitere Messstationen in der Nähe

Messstation Temperatur Entfernung
Daressalam 27 °C 171 km
Sansibar 27 °C 186 km
Dodoma - 220 km
Iringa 23 °C 229 km
Mombasa - 380 km
Kilimanjaro Flughafen 24 °C 384 km
Arusha 19 °C 405 km

Wind

Windrichtung Böen Mittelwind
° km/h km/h
1573758000 22.00 21.00 - 22.00 60° 20
1573761600 23.00 22.00 - 23.00
1573765200 0.00 23.00 - 0.00 0
1573768800 1.00 0.00 - 1.00
1573772400 2.00 1.00 - 2.00
1573776000 3.00 2.00 - 3.00 0
1573779600 4.00 3.00 - 4.00 0
1573783200 5.00 4.00 - 5.00 0
1573786800 6.00 5.00 - 6.00 0
1573790400 7.00 6.00 - 7.00 0
1573794000 8.00 7.00 - 8.00 0
1573797600 9.00 8.00 - 9.00 0
1573801200 10.00 9.00 - 10.00 300° 10
1573804800 11.00 10.00 - 11.00 0
1573808400 12.00 11.00 - 12.00 0
1573812000 13.00 12.00 - 13.00 0
1573815600 14.00 13.00 - 14.00 330° 10
1573819200 15.00 14.00 - 15.00 0
1573822800 16.00 15.00 - 16.00
1573826400 17.00 16.00 - 17.00 30° 10
1573830000 18.00 17.00 - 18.00 30° 15
1573833600 19.00 18.00 - 19.00 0
1573837200 20.00 19.00 - 20.00 0
1573840800 21.00 20.00 - 21.00 0

Ihre Wetterstation

Fehlt Ihre Wetterstation auf unserem Portal?

Schreiben Sie an network@meteonews.ch

Klima

Wann ist es am wärmsten? Wann regnet es am wenigsten? Unsere Klimadaten geben Auskunft.